Latest Coastal Weather Observations for Kingfish B

IDV60701

Issued at 7:45 am EST Saturday 23 August 2014 (issued every 10 minutes, with the page automatically refreshed every 10 minutes)

About coastal observations | Map of coastal stations | Coastal observations for VIC | Marine services | Other Formats
Station Details ID: 400139 Name: KINGFISH B (PLATFORM) Lat: -38.60 Lon: 148.19 Height: 31.4 m
Data from the previous 72 hours. | See also: Recent months for locations in Victoria
Date/Time
EST
Temp

°C
Wind Pressure Rain
since 9am
mm
Weather Cloud Vis
km
Sea
Height
m
Swell
Dir
 
Speed
knots
Gust
knots
hPa Trend Height
m
Period
s
Dir
21/02:30pm 14.2 ENE 15 20 1029.2 - - - - - - - - -
21/02:20pm 14.1 ENE 14 16 1029.2 - - - - - - - - -
21/02:10pm 14.0 ENE 13 16 1029.3 - - - - - - - - -
21/02:00pm 13.9 ENE 13 15 1029.3 - - - - - - - - -
21/01:50pm 13.8 ENE 12 14 1029.4 - - - - - - - - -
21/01:40pm 13.6 ENE 12 13 1029.4 - - - - - - - - -
21/01:30pm 13.5 ENE 12 14 1029.4 - - - - - - - - -
21/01:20pm 13.5 ENE 11 13 1029.5 - - - - - - - - -
21/01:10pm 13.3 ENE 11 12 1029.6 - - - - - - - - -
21/01:00pm 13.2 ENE 10 12 1029.7 - - - - - - - - -
21/12:50pm 13.3 ENE 10 13 1029.8 - - - - - - - - -
21/12:40pm 13.1 ENE 11 13 1029.9 - - - - - - - - -
21/12:30pm 13.0 E 10 11 1029.9 - - - - - - - - -
21/12:20pm 13.0 E 10 14 1030.0 - - - - - - - - -
21/12:00pm 13.5 ENE 8 10 1030.3 - - - - - - - - -
21/11:50am 13.7 ENE 8 10 1030.3 - - - - - - - - -
21/11:40am 13.9 ENE 7 10 1030.4 - - - - - - - - -
21/11:30am 14.0 ENE 6 8 1030.5 - - - - - - - - -
21/11:20am 14.1 ENE 5 8 1030.5 - - - - - - - - -
21/11:10am 14.2 ENE 6 10 1030.6 - - - - - - - - -
21/11:00am 14.3 ENE 6 8 1030.7 - - - - - - - - -
21/10:50am 14.4 ENE 5 8 1030.8 - - - - - - - - -
21/10:40am 14.2 ENE 5 7 1030.9 - - - - - - - - -
21/10:30am 13.9 NE 6 10 1031.0 - - - - - - - - -
21/10:20am 13.8 NE 10 13 1031.1 - - - - - - - - -
21/10:10am 13.9 NE 10 14 1031.1 - - - - - - - - -
21/10:00am 14.1 NE 9 14 1031.1 - - - - - - - - -
21/09:50am 14.2 ENE 7 10 1031.2 - - - - - - - - -
21/09:40am 14.1 ENE 6 9 1031.2 - - - - - - - - -
21/09:30am 14.0 ENE 8 10 1031.2 - - - - - - - - -
21/09:20am 14.0 ENE 7 10 1031.2 - - - - - - - - -
21/09:10am 14.0 ENE 7 10 1031.2 - - - - - - - - -
21/09:00am 14.0 ENE 7 10 1031.2 - - - - - - - - -
21/08:50am 13.9 ENE 7 10 1031.1 - - - - - - - - -
21/08:40am 13.8 E 6 8 1031.1 - - - - - - - - -
21/08:30am 13.8 E 7 11 1031.0 - - - - - - - - -
21/08:20am 13.7 ENE 7 10 1031.0 - - - - - - - - -
21/08:10am 13.1 E 7 10 1030.9 - - - - - - - - -
21/08:00am 12.8 E 8 10 1031.0 - - - - - - - - -
21/07:50am 12.6 E 10 12 1031.1 - - - - - - - - -
21/07:40am 12.6 E 11 13 1031.0 - - - - - - - - -
21/07:30am 13.0 E 11 14 1031.0 - - - - - - - - -
21/07:20am 13.1 E 7 10 1030.9 - - - - - - - - -
21/07:10am 13.1 E 6 8 1030.9 - - - - - - - - -
21/07:00am 13.1 ENE 5 7 1030.8 - - - - - - - - -
21/06:50am 12.9 E 4 6 1030.7 - - - - - - - - -
21/06:40am 12.8 E 4 6 1030.6 - - - - - - - - -
21/06:30am 12.7 E 5 7 1030.5 - - - - - - - - -
21/06:20am 12.7 E 5 7 1030.4 - - - - - - - - -
21/06:10am 12.6 E 5 6 1030.3 - - - - - - - - -
21/06:00am 12.5 E 5 7 1030.1 - - - - - - - - -
21/05:50am 12.4 E 4 7 1029.9 - - - - - - - - -
21/05:40am 12.4 E 5 7 1029.8 - - - - - - - - -
21/05:30am 12.4 E 4 5 1029.8 - - - - - - - - -
21/05:20am 12.3 E 4 6 1029.7 - - - - - - - - -
21/05:10am 12.3 E 3 5 1029.6 - - - - - - - - -
21/05:00am 12.2 E 2 4 1029.6 - - - - - - - - -
21/04:50am 12.1 E 3 5 1029.5 - - - - - - - - -
21/04:30am 12.1 E 4 7 1029.3 - - - - - - - - -
21/04:20am 12.3 E 5 8 1029.3 - - - - - - - - -
21/04:10am 12.3 ESE 5 8 1029.2 - - - - - - - - -
21/04:00am 12.3 ESE 5 8 1029.0 - - - - - - - - -
21/03:50am 12.3 ESE 4 7 1029.0 - - - - - - - - -
21/03:40am 12.3 ESE 4 8 1029.0 - - - - - - - - -
21/03:30am 12.3 ESE 5 9 1029.0 - - - - - - - - -
21/03:20am 12.2 E 5 7 1029.0 - - - - - - - - -
21/03:10am 12.2 E 5 8 1029.0 - - - - - - - - -
21/03:00am 12.2 E 5 8 1029.0 - - - - - - - - -
21/02:50am 12.1 ESE 5 8 1029.0 - - - - - - - - -
21/02:40am 12.1 ESE 5 8 1028.9 - - - - - - - - -
21/02:30am 12.1 ESE 6 10 1028.9 - - - - - - - - -
21/02:20am 12.3 ESE 5 8 1028.8 - - - - - - - - -
21/02:10am 12.2 E 2 7 1028.8 - - - - - - - - -
21/02:00am 12.2 E 2 6 1028.8 - - - - - - - - -
21/01:50am 12.1 E 1 4 1028.8 - - - - - - - - -
21/01:40am 12.2 ESE 1 5 1028.7 - - - - - - - - -
21/01:30am 12.2 SE 2 6 1028.8 - - - - - - - - -
21/01:20am 12.2 ESE 2 8 1028.9 - - - - - - - - -
21/01:10am 12.2 ESE 2 8 1028.9 - - - - - - - - -
21/01:00am 12.2 ESE 2 7 1029.0 - - - - - - - - -
21/12:50am 12.1 ESE 3 8 1029.0 - - - - - - - - -
21/12:40am 12.1 ESE 4 7 1029.0 - - - - - - - - -
21/12:30am 12.1 ESE 3 7 1029.1 - - - - - - - - -
21/12:20am 12.1 ESE 3 7 1029.1 - - - - - - - - -
21/12:10am 12.0 SE 3 7 1029.1 - - - - - - - - -
21/12:00am 11.9 SSE 3 7 1029.2 - - - - - - - - -
 
Date/Time
EST
Temp

°C
Wind Pressure Rain
since 9am
mm
Weather Cloud Vis
km
Sea
Height
m
Swell
Dir
 
Speed
knots
Gust
knots
hPa Trend Height
m
Period
s
Dir
20/11:50pm 11.8 SE 4 7 1029.2 - - - - - - - - -
20/11:40pm 11.7 SSE 3 7 1029.2 - - - - - - - - -
20/11:30pm 11.7 SSE 3 8 1029.2 - - - - - - - - -
20/11:20pm 11.6 SE 3 7 1029.2 - - - - - - - - -
20/11:10pm 11.6 SSE 3 6 1029.1 - - - - - - - - -
20/11:00pm 11.5 S 1 4 1029.1 - - - - - - - - -
20/10:50pm 11.5 SSW 1 2 1029.0 - - - - - - - - -
20/10:40pm 11.5 SSW 1 2 1029.0 - - - - - - - - -
20/10:30pm 11.5 S 1 2 1029.1 - - - - - - - - -
20/10:20pm 11.5 S 0 2 1029.1 - - - - - - - - -
20/10:10pm 11.5 SSW 0 0 1029.1 - - - - - - - - -
20/10:00pm 11.5 SSW 0 0 1029.0 - - - - - - - - -
20/09:50pm 11.8 SW 0 0 1029.0 - - - - - - - - -
20/09:40pm 12.6 SW 0 0 1029.0 - - - - - - - - -
20/09:30pm 12.6 W 0 0 1029.0 - - - - - - - - -
20/09:20pm 12.6 WSW 0 0 1029.1 - - - - - - - - -
20/09:00pm 12.4 NE 0 0 1029.2 - - - - - - - - -
20/08:50pm 12.7 WSW 0 0 1029.2 - - - - - - - - -
20/08:40pm 12.7 W 0 1 1029.2 - - - - - - - - -
20/08:30pm 12.6 W 0 1 1029.1 - - - - - - - - -
20/08:20pm 13.3 W 0 1 1029.1 - - - - - - - - -
20/08:10pm 13.4 WNW 1 2 1029.0 - - - - - - - - -
20/08:00pm 13.4 WNW 1 2 1028.9 - - - - - - - - -
20/07:50pm 13.3 WNW 1 3 1028.9 - - - - - - - - -
20/07:40pm 12.8 NW 0 1 1028.9 - - - - - - - - -
20/07:30pm 12.7 NW 1 2 1028.9 - - - - - - - - -
20/07:20pm 12.4 NW 0 1 1028.9 - - - - - - - - -
20/07:10pm 12.1 NW 1 2 1028.9 - - - - - - - - -
20/07:00pm 11.7 NNW 0 1 1028.8 - - - - - - - - -
20/06:50pm 11.3 NW 0 0 1028.8 - - - - - - - - -
20/06:40pm 10.8 NE 0 0 1028.7 - - - - - - - - -
20/06:30pm 10.5 WSW 0 1 1028.7 - - - - - - - - -
20/06:20pm 10.2 WSW 0 1 1028.7 - - - - - - - - -
20/06:10pm 9.9 S 0 2 1028.7 - - - - - - - - -
20/06:00pm 9.7 SSE 1 2 1028.7 - - - - - - - - -
20/05:50pm 9.4 SSE 1 5 1028.6 - - - - - - - - -
20/05:40pm 9.5 SE 4 6 1028.5 - - - - - - - - -
20/05:30pm 10.0 SE 2 7 1028.3 - - - - - - - - -
20/05:20pm 10.1 SSE 0 2 1028.2 - - - - - - - - -
20/05:10pm 10.4 S 0 1 1028.0 - - - - - - - - -
20/05:00pm 10.7 SW 0 2 1027.8 - - - - - - - - -
20/04:50pm 10.7 SW 0 1 1027.7 - - - - - - - - -
20/04:40pm 10.5 WSW 1 2 1027.5 - - - - - - - - -
20/04:30pm 10.6 WSW 2 4 1027.4 - - - - - - - - -
20/04:20pm 10.8 WSW 4 6 1027.3 - - - - - - - - -
20/04:10pm 11.1 WSW 4 6 1027.1 - - - - - - - - -
20/04:00pm 11.5 WSW 5 7 1027.0 - - - - - - - - -
20/03:50pm 11.7 WSW 5 7 1026.9 - - - - - - - - -
20/03:40pm 11.7 WSW 6 8 1026.8 - - - - - - - - -
20/03:30pm 11.7 WSW 6 7 1026.7 - - - - - - - - -
20/03:20pm 11.4 WSW 5 6 1026.6 - - - - - - - - -
20/03:10pm 11.6 WSW 5 6 1026.6 - - - - - - - - -
20/03:00pm 11.7 WSW 4 6 1026.5 - - - - - - - - -
20/02:50pm 11.9 WSW 4 6 1026.5 - - - - - - - - -
20/02:40pm 12.5 WSW 3 7 1026.5 - - - - - - - - -
20/02:30pm 12.7 WNW 3 4 1026.4 - - - - - - - - -
20/02:20pm 12.4 W 3 5 1026.3 - - - - - - - - -
20/02:10pm 12.5 W 1 3 1026.3 - - - - - - - - -
20/02:00pm 12.5 W 3 5 1026.2 - - - - - - - - -
20/01:50pm 12.4 W 4 6 1026.1 - - - - - - - - -
20/01:40pm 12.3 WSW 6 9 1026.0 - - - - - - - - -
20/01:30pm 12.3 W 9 11 1026.0 - - - - - - - - -
20/01:20pm 12.3 W 10 11 1025.9 - - - - - - - - -
20/01:10pm 12.5 W 10 12 1025.9 - - - - - - - - -
20/01:00pm 12.6 W 11 12 1025.8 - - - - - - - - -
20/12:50pm 12.8 WSW 9 11 1025.8 - - - - - - - - -
20/12:40pm 12.9 WSW 8 10 1025.8 - - - - - - - - -
20/12:30pm 12.9 WSW 9 11 1025.7 - - - - - - - - -
20/12:20pm 13.2 WSW 10 12 1025.7 - - - - - - - - -
20/12:10pm 13.4 WSW 10 12 1025.8 - - - - - - - - -
20/12:00pm 13.6 WSW 9 10 1025.9 - - - - - - - - -
20/11:50am 13.7 W 9 11 1026.0 - - - - - - - - -
20/11:40am 13.8 W 8 11 1026.0 - - - - - - - - -
20/11:20am 13.8 W 7 9 1026.1 - - - - - - - - -
20/11:10am 13.6 W 6 9 1026.2 - - - - - - - - -
20/11:00am 13.5 W 7 9 1026.3 - - - - - - - - -
20/10:50am 13.3 W 7 10 1026.3 - - - - - - - - -
20/10:40am 13.0 W 8 10 1026.4 - - - - - - - - -
20/10:30am 12.9 W 9 11 1026.6 - - - - - - - - -
20/10:20am 12.8 W 10 12 1026.5 - - - - - - - - -
20/10:10am 12.7 WSW 12 15 1026.5 - - - - - - - - -
20/10:00am 12.9 WSW 12 14 1026.4 - - - - - - - - -
20/09:50am 13.3 W 11 14 1026.5 - - - - - - - - -
20/09:40am 13.5 W 11 13 1026.4 - - - - - - - - -
20/09:30am 13.7 WSW 11 13 1026.3 - - - - - - - - -
20/09:20am 13.7 WSW 12 14 1026.1 - - - - - - - - -
20/09:10am 13.8 WSW 13 15 1026.0 - - - - - - - - -
20/09:00am 13.8 WSW 11 14 1026.0 - - - - - - - - -
20/08:50am 13.8 WSW 9 13 1026.0 - - - - - - - - -
20/08:40am 13.7 WSW 9 11 1026.0 - - - - - - - - -
20/08:30am 13.5 WSW 9 11 1025.9 - - - - - - - - -
20/08:20am 13.4 WSW 8 9 1025.9 - - - - - - - - -
20/08:10am 13.2 SW 8 11 1025.9 - - - - - - - - -
20/08:00am 13.1 SW 9 12 1025.8 - - - - - - - - -
20/07:50am 13.0 SW 8 10 1025.8 - - - - - - - - -

Other Formats:

Comma delimited format used in spreadsheet applications
http://www.bom.gov.au/fwo/IDV60701/IDV60701.55039.axf

JavaScript Object Notation format (JSON) in row-major order
http://www.bom.gov.au/fwo/IDV60701/IDV60701.55039.json